Time;durP1;ratioP1;P1;durP2;ratioP2;P2;SDS_P1;SDS_P2;PMS_P1;PMS_P2;Temp;Humidity;BMP_temperature;BMP_pressure;BME280_temperature;BME280_humidity;BME280_pressure;Samples;Min_cycle;Max_cycle;Signal;HPM_P1;HPM_P2
2021/05/09 00:01:30;;;;;;;5.10;4.30;;;;;;;9.74;87.18;99777.37;648375;220;27994;-74
2021/05/09 00:03:58;;;;;;;4.90;4.00;;;;;;;9.77;86.28;99764.56;644798;220;24804;-74
2021/05/09 00:06:25;;;;;;;4.90;3.83;;;;;;;9.83;86.07;99769.14;644832;221;24836;-77
2021/05/09 00:08:53;;;;;;;4.90;4.23;;;;;;;9.78;86.21;99765.70;644875;221;24821;-74
2021/05/09 00:11:21;;;;;;;5.10;4.50;;;;;;;9.79;85.26;99771.71;644675;220;24851;-74
2021/05/09 00:13:49;;;;;;;4.90;4.33;;;;;;;9.78;85.44;99764.89;640065;220;24804;-78
2021/05/09 00:16:17;;;;;;;4.50;3.73;;;;;;;9.95;85.25;99763.22;639502;220;24871;-77
2021/05/09 00:18:45;;;;;;;6.53;4.70;;;;;;;9.45;85.73;99754.25;648737;220;23830;-75
2021/05/09 00:21:13;;;;;;;5.10;4.50;;;;;;;9.35;86.43;99756.09;639859;222;23824;-75
2021/05/09 00:23:41;;;;;;;4.30;3.93;;;;;;;8.91;88.50;99765.06;646521;222;24770;-76
2021/05/09 00:26:10;;;;;;;6.30;4.53;;;;;;;8.96;89.61;99767.22;642375;222;28313;-77
2021/05/09 00:28:37;;;;;;;6.20;4.50;;;;;;;9.79;86.37;99758.24;640377;222;32652;-77
2021/05/09 00:31:05;;;;;;;5.13;4.50;;;;;;;9.35;89.05;99766.48;638830;222;24840;-77
2021/05/09 00:33:33;;;;;;;5.00;4.20;;;;;;;9.25;90.06;99766.21;641642;221;24807;-78
2021/05/09 00:36:01;;;;;;;4.97;4.47;;;;;;;9.99;86.31;99756.29;634906;222;32696;-77
2021/05/09 00:38:30;;;;;;;4.97;4.47;;;;;;;9.17;88.77;99758.70;646655;221;23680;-77
2021/05/09 00:40:58;;;;;;;5.07;4.33;;;;;;;9.33;89.01;99761.11;634391;225;24835;-77
2021/05/09 00:43:25;;;;;;;4.97;4.47;;;;;;;9.34;89.04;99760.14;632937;225;24857;-75
2021/05/09 00:45:54;;;;;;;5.40;4.40;;;;;;;9.48;87.99;99757.84;628994;225;24877;-76
2021/05/09 00:48:22;;;;;;;4.27;3.87;;;;;;;9.25;88.44;99754.05;645062;221;24868;-74
2021/05/09 00:50:50;;;;;;;4.40;4.00;;;;;;;9.03;87.89;99746.72;640017;222;24932;-74
2021/05/09 00:53:18;;;;;;;3.90;3.47;;;;;;;9.00;89.40;99753.47;628700;225;24878;-75
2021/05/09 00:55:46;;;;;;;4.80;4.37;;;;;;;8.95;89.69;99741.43;634884;225;24819;-78
2021/05/09 00:58:14;;;;;;;5.57;4.50;;;;;;;8.77;91.51;99744.81;630304;225;24859;-74
2021/05/09 01:00:42;;;;;;;5.27;4.77;;;;;;;9.00;92.27;99742.61;642166;221;24888;-74
2021/05/09 01:03:10;;;;;;;5.23;4.70;;;;;;;8.88;93.15;99742.03;640319;224;24821;-77
2021/05/09 01:05:37;;;;;;;4.50;4.10;;;;;;;8.89;92.04;99729.39;641084;223;24780;-76
2021/05/09 01:08:05;;;;;;;4.50;4.10;;;;;;;8.65;93.47;99732.19;638295;225;27993;-76
2021/05/09 01:10:33;;;;;;;5.03;4.40;;;;;;;8.56;95.09;99730.79;629059;225;24881;-76
2021/05/09 01:13:01;;;;;;;5.57;4.40;;;;;;;8.92;95.05;99725.20;633062;225;24860;-76
2021/05/09 01:15:29;;;;;;;5.60;4.20;;;;;;;8.96;93.46;99713.23;643254;220;24781;-76
2021/05/09 01:17:57;;;;;;;5.73;4.40;;;;;;;9.16;93.31;99714.74;636789;225;24832;-77
2021/05/09 01:20:33;;;;;;;5.30;4.53;;;;;;;9.31;92.87;99709.84;630867;225;24840;-77
2021/05/09 01:23:00;;;;;;;6.60;4.90;;;;;;;9.56;92.00;99714.24;645019;221;24802;-78
2021/05/09 01:25:28;;;;;;;5.80;4.47;;;;;;;10.23;88.15;99708.03;640772;222;32700;-76
2021/05/09 01:27:57;;;;;;;6.08;4.78;;;;;;;10.35;86.53;99699.00;630771;225;32750;-77
2021/05/09 01:30:24;;;;;;;5.43;4.93;;;;;;;9.78;88.44;99698.66;634057;224;23711;-75
2021/05/09 01:32:52;;;;;;;6.27;4.60;;;;;;;9.74;89.54;99700.77;641317;221;23822;-74
2021/05/09 01:35:20;;;;;;;6.50;5.57;;;;;;;9.63;88.98;99693.22;630128;226;24826;-76
2021/05/09 01:37:48;;;;;;;5.37;4.60;;;;;;;9.35;89.14;99692.52;639814;221;23840;-76
2021/05/09 01:40:16;;;;;;;6.60;5.57;;;;;;;8.98;90.36;99699.16;641862;221;24836;-76
2021/05/09 01:42:44;;;;;;;5.57;4.67;;;;;;;8.91;91.54;99705.91;628808;225;24869;-80
2021/05/09 01:45:12;;;;;;;5.73;4.97;;;;;;;8.82;92.60;99706.30;641284;223;24815;-76
2021/05/09 01:47:40;;;;;;;5.27;4.60;;;;;;;8.86;92.02;99705.52;641654;223;24790;-76
2021/05/09 01:50:09;;;;;;;5.13;4.50;;;;;;;8.75;94.04;99709.16;640892;224;24799;-74
2021/05/09 01:52:36;;;;;;;4.93;4.50;;;;;;;8.96;93.06;99696.37;640036;223;24793;-77
2021/05/09 01:55:07;;;;;;;7.23;5.00;;;;;;;8.92;92.71;99693.27;639767;222;24875;-77
2021/05/09 01:57:34;;;;;;;5.73;5.13;;;;;;;9.18;91.80;99693.36;641367;220;24870;-74
2021/05/09 02:00:05;;;;;;;6.83;5.57;;;;;;;9.28;92.17;99691.47;643640;221;26910;-75
2021/05/09 02:02:33;;;;;;;6.00;5.00;;;;;;;9.08;92.27;99693.42;634210;224;26034;-75
2021/05/09 02:05:01;;;;;;;7.10;5.20;;;;;;;9.13;92.50;99691.66;641727;221;23836;-77
2021/05/09 02:07:28;;;;;;;6.27;5.67;;;;;;;9.08;92.90;99688.23;637248;225;24890;-76
2021/05/09 02:09:56;;;;;;;7.60;5.00;;;;;;;9.11;93.87;99697.49;636366;225;23839;-77
2021/05/09 02:12:24;;;;;;;7.00;5.10;;;;;;;9.19;92.31;99688.50;628128;226;28047;-78
2021/05/09 02:14:52;;;;;;;6.33;5.60;;;;;;;9.16;93.21;99683.61;644607;221;24829;-75
2021/05/09 02:17:20;;;;;;;5.97;5.20;;;;;;;9.05;93.89;99686.42;632897;225;24814;-75
2021/05/09 02:19:48;;;;;;;5.23;4.73;;;;;;;9.08;94.65;99693.91;642136;221;24818;-75
2021/05/09 02:22:16;;;;;;;4.80;4.40;;;;;;;9.22;93.98;99690.78;641450;221;24790;-74
2021/05/09 02:24:44;;;;;;;5.20;4.60;;;;;;;9.16;94.28;99688.31;645443;219;23846;-77
2021/05/09 02:27:11;;;;;;;5.30;4.13;;;;;;;9.22;93.57;99690.78;634159;224;24808;-74
2021/05/09 02:29:39;;;;;;;4.90;4.50;;;;;;;9.18;94.67;99688.17;631637;225;24842;-76
2021/05/09 02:32:07;;;;;;;5.60;4.63;;;;;;;9.16;93.80;99678.42;645303;221;24782;-77
2021/05/09 02:34:35;;;;;;;5.53;4.20;;;;;;;9.32;94.50;99666.06;632105;225;24850;-77
2021/05/09 02:37:03;;;;;;;5.50;3.87;;;;;;;9.21;93.65;99658.02;627072;225;24852;-76
2021/05/09 02:39:31;;;;;;;6.60;4.43;;;;;;;9.08;95.23;99683.05;631974;226;24849;-77
2021/05/09 02:41:59;;;;;;;5.30;4.33;;;;;;;9.72;92.37;99678.52;636579;221;32720;-76
2021/05/09 02:44:27;;;;;;;5.60;4.57;;;;;;;9.59;93.54;99677.62;640800;223;27971;-77
2021/05/09 02:46:54;;;;;;;5.83;4.60;;;;;;;9.61;93.62;99681.36;646440;220;25966;-77
2021/05/09 02:49:22;;;;;;;7.10;4.33;;;;;;;9.51;93.03;99680.95;633755;225;24884;-76
2021/05/09 02:51:50;;;;;;;4.57;4.17;;;;;;;9.50;91.66;99680.63;638335;221;24790;-76
2021/05/09 02:54:18;;;;;;;4.73;4.13;;;;;;;9.43;92.89;99675.73;638188;221;27003;-74
2021/05/09 02:56:46;;;;;;;4.43;3.90;;;;;;;9.26;92.44;99671.84;643601;221;24818;-74
2021/05/09 02:59:14;;;;;;;5.80;4.37;;;;;;;9.22;94.71;99694.20;645656;221;24815;-74
2021/05/09 03:01:42;;;;;;;4.23;3.80;;;;;;;9.38;93.51;99690.10;639892;221;24804;-74
2021/05/09 03:04:09;;;;;;;4.40;4.00;;;;;;;9.31;94.04;99693.79;635392;224;28025;-77
2021/05/09 03:06:37;;;;;;;9.93;4.57;;;;;;;9.35;94.01;99689.92;642196;221;24822;-77
2021/05/09 03:09:06;;;;;;;5.03;3.93;;;;;;;9.37;93.80;99698.38;646940;221;23876;-77
2021/05/09 03:11:34;;;;;;;5.95;4.60;;;;;;;10.00;91.60;99695.56;640046;221;43387;-77
2021/05/09 03:14:03;;;;;;;6.57;4.40;;;;;;;9.62;92.53;99680.39;627361;225;31296;-75
2021/05/09 03:16:30;;;;;;;4.90;3.73;;;;;;;9.35;91.78;99679.55;644897;221;23837;-76
2021/05/09 03:18:58;;;;;;;5.23;4.00;;;;;;;9.20;93.80;99684.45;641005;220;24879;-77
2021/05/09 03:21:26;;;;;;;5.27;4.20;;;;;;;9.17;94.09;99685.23;632413;225;24782;-77
2021/05/09 03:23:54;;;;;;;4.70;4.20;;;;;;;9.21;93.37;99681.37;639754;222;28029;-77
2021/05/09 03:26:22;;;;;;;5.00;3.80;;;;;;;9.16;93.74;99677.12;643962;222;24808;-74
2021/05/09 03:28:50;;;;;;;4.30;3.90;;;;;;;9.22;93.84;99681.22;643804;221;24835;-74
2021/05/09 03:31:18;;;;;;;5.20;4.03;;;;;;;9.35;93.46;99682.63;639233;221;24869;-74
2021/05/09 03:33:45;;;;;;;5.43;3.60;;;;;;;9.25;91.29;99667.13;638055;221;24887;-74
2021/05/09 03:36:13;;;;;;;4.07;3.77;;;;;;;8.92;92.54;99668.16;638321;222;25237;-74
2021/05/09 03:38:41;;;;;;;4.17;3.87;;;;;;;8.95;93.51;99666.22;643738;220;24802;-74
2021/05/09 03:41:09;;;;;;;4.60;4.13;;;;;;;8.98;93.63;99668.52;650762;220;25981;-74
2021/05/09 03:43:37;;;;;;;6.37;5.23;;;;;;;9.08;93.71;99673.15;642426;221;24812;-78
2021/05/09 03:46:05;;;;;;;6.00;5.40;;;;;;;9.11;94.25;99669.77;628024;225;24853;-76
2021/05/09 03:48:33;;;;;;;6.87;6.17;;;;;;;9.18;93.08;99672.12;646958;220;23828;-77
2021/05/09 03:51:00;;;;;;;6.13;5.53;;;;;;;9.05;93.62;99672.16;645092;220;24876;-77
2021/05/09 03:53:30;;;;;;;5.83;5.20;;;;;;;8.91;93.50;99669.12;646092;221;24814;-78
2021/05/09 03:55:56;;;;;;;5.53;5.03;;;;;;;9.11;93.58;99662.47;641912;221;24790;-76
2021/05/09 03:58:24;;;;;;;5.87;4.80;;;;;;;9.08;93.39;99658.89;647021;221;24798;-76
2021/05/09 04:00:52;;;;;;;5.13;4.63;;;;;;;9.19;93.36;99665.96;636205;225;24899;-76
2021/05/09 04:03:21;;;;;;;4.97;4.23;;;;;;;9.29;93.39;99670.23;642614;221;24823;-73
2021/05/09 04:05:51;;;;;;;10.50;5.17;;;;;;;9.30;93.73;99667.52;643097;221;24931;-74
2021/05/09 04:08:17;;;;;;;6.67;4.93;;;;;;;9.38;93.11;99664.96;627621;225;24862;-75
2021/05/09 04:10:45;;;;;;;7.93;4.60;;;;;;;9.40;92.87;99654.42;649312;221;24034;-74
2021/05/09 04:13:13;;;;;;;6.13;4.83;;;;;;;9.29;92.75;99656.80;632343;225;24814;-76
2021/05/09 04:15:41;;;;;;;8.33;4.77;;;;;;;9.38;94.12;99662.84;637102;225;27969;-74
2021/05/09 04:18:08;;;;;;;5.30;4.23;;;;;;;9.63;93.85;99670.33;633444;225;27048;-76
2021/05/09 04:20:36;;;;;;;5.30;4.33;;;;;;;9.80;92.23;99669.46;629306;226;24871;-74
2021/05/09 04:23:11;;;;;;;4.80;4.33;;;;;;;10.25;91.30;99659.31;644470;221;24877;-75
2021/05/09 04:25:39;;;;;;;6.13;4.60;;;;;;;10.68;90.52;99660.41;631444;225;24828;-73
2021/05/09 04:28:07;;;;;;;4.40;4.00;;;;;;;11.05;89.16;99653.97;639481;221;24801;-73
2021/05/09 04:30:35;;;;;;;4.70;4.10;;;;;;;11.74;85.72;99648.70;636211;221;33758;-76
2021/05/09 04:33:03;;;;;;;4.47;3.87;;;;;;;11.48;85.63;99641.09;644001;221;24801;-74
2021/05/09 04:35:30;;;;;;;4.53;4.00;;;;;;;11.54;85.73;99644.36;641363;221;24797;-74
2021/05/09 04:37:58;;;;;;;4.37;3.97;;;;;;;11.63;84.39;99643.03;647563;220;24839;-74
2021/05/09 04:40:27;;;;;;;4.40;3.80;;;;;;;11.36;85.63;99644.20;640987;221;26986;-74
2021/05/09 04:42:55;;;;;;;4.77;3.93;;;;;;;10.75;88.21;99650.69;643244;221;24858;-73
2021/05/09 04:45:23;;;;;;;5.20;4.50;;;;;;;11.05;88.59;99660.97;636476;225;28066;-73
2021/05/09 04:47:51;;;;;;;5.20;4.60;;;;;;;11.40;88.45;99645.49;645301;218;24790;-74
2021/05/09 04:50:19;;;;;;;5.70;4.47;;;;;;;11.18;87.15;99641.29;641827;220;24794;-74
2021/05/09 04:52:47;;;;;;;5.03;4.53;;;;;;;11.33;88.20;99647.14;640846;220;24881;-74
2021/05/09 04:55:14;;;;;;;4.33;3.93;;;;;;;11.66;87.72;99647.41;643605;220;26971;-74
2021/05/09 04:57:42;;;;;;;4.60;4.10;;;;;;;12.25;85.62;99640.59;628032;225;25336;-74
2021/05/09 05:00:13;;;;;;;4.70;4.27;;;;;;;12.93;83.70;99640.66;636727;225;24870;-75
2021/05/09 05:02:39;;;;;;;5.20;4.57;;;;;;;13.04;80.65;99620.67;641194;221;24807;-74
2021/05/09 05:05:08;;;;;;;5.23;4.27;;;;;;;12.65;82.65;99618.67;633850;225;25150;-74
2021/05/09 05:07:36;;;;;;;6.90;5.00;;;;;;;12.65;83.05;99629.11;623798;227;32816;-75
2021/05/09 05:10:04;;;;;;;7.83;4.50;;;;;;;12.78;84.06;99628.05;636382;225;23759;-74
2021/05/09 05:12:32;;;;;;;5.70;5.20;;;;;;;12.63;84.91;99633.69;640450;221;24823;-76
2021/05/09 05:15:00;;;;;;;8.23;5.07;;;;;;;12.92;84.84;99636.42;641341;221;28011;-74
2021/05/09 05:17:27;;;;;;;5.17;4.67;;;;;;;12.90;84.19;99637.09;633620;225;24842;-76
2021/05/09 05:19:55;;;;;;;5.77;5.10;;;;;;;13.21;83.35;99640.14;637172;225;24817;-75
2021/05/09 05:22:23;;;;;;;5.35;4.70;;;;;;;13.55;81.56;99621.41;628112;226;32808;-75
2021/05/09 05:24:51;;;;;;;7.20;5.20;;;;;;;13.35;82.03;99631.53;634132;225;23740;-75
2021/05/09 05:27:19;;;;;;;5.20;4.70;;;;;;;13.78;82.31;99635.19;634403;225;28101;-75
2021/05/09 05:29:47;;;;;;;11.63;5.57;;;;;;;14.02;79.17;99624.14;628301;225;23858;-74
2021/05/09 05:32:15;;;;;;;5.47;4.97;;;;;;;13.84;79.09;99622.72;629478;226;23870;-74
2021/05/09 05:34:42;;;;;;;7.07;4.60;;;;;;;14.35;78.18;99622.73;634881;225;23915;-75
2021/05/09 05:37:10;;;;;;;7.20;4.80;;;;;;;14.72;76.64;99620.45;644968;220;24848;-77
2021/05/09 05:39:38;;;;;;;5.27;4.77;;;;;;;14.79;75.27;99611.36;640055;221;24824;-74
2021/05/09 05:42:07;;;;;;;5.47;4.97;;;;;;;15.28;74.49;99606.63;640893;221;23816;-74
2021/05/09 05:44:35;;;;;;;5.00;4.60;;;;;;;14.96;75.02;99613.22;638146;221;23808;-73
2021/05/09 05:47:03;;;;;;;5.90;4.83;;;;;;;14.55;76.58;99620.37;643892;221;24816;-74
2021/05/09 05:49:31;;;;;;;5.10;4.60;;;;;;;14.92;75.77;99621.13;636530;225;23884;-74
2021/05/09 05:51:59;;;;;;;5.00;4.50;;;;;;;15.24;76.12;99614.06;639874;222;24870;-74
2021/05/09 05:54:28;;;;;;;6.20;4.20;;;;;;;15.50;74.36;99608.20;645243;221;24799;-74
2021/05/09 05:56:55;;;;;;;5.37;4.50;;;;;;;15.78;72.87;99608.20;640582;221;24088;-74
2021/05/09 05:59:22;;;;;;;4.90;4.50;;;;;;;15.77;73.86;99611.02;646904;219;24873;-74
2021/05/09 06:01:50;;;;;;;7.97;4.40;;;;;;;15.55;75.17;99620.72;650725;220;24817;-74
2021/05/09 06:04:18;;;;;;;6.00;4.80;;;;;;;15.33;75.21;99624.69;635495;220;43455;-76
2021/05/09 06:06:46;;;;;;;6.63;5.03;;;;;;;14.66;78.98;99636.10;640575;220;23844;-75
2021/05/09 06:09:14;;;;;;;5.50;5.00;;;;;;;14.63;78.63;99640.38;644022;221;24831;-74
2021/05/09 06:11:42;;;;;;;5.80;5.00;;;;;;;14.84;78.79;99635.98;643858;220;26993;-75
2021/05/09 06:14:10;;;;;;;5.63;5.03;;;;;;;15.20;75.91;99635.09;646497;220;24793;-74
2021/05/09 06:16:38;;;;;;;7.13;5.00;;;;;;;15.34;77.06;99625.03;649596;220;23825;-74
2021/05/09 06:19:05;;;;;;;7.37;5.43;;;;;;;15.32;77.00;99621.77;639634;220;24868;-74
2021/05/09 06:21:33;;;;;;;5.80;5.30;;;;;;;16.04;74.64;99612.23;638371;222;32668;-77
2021/05/09 06:24:01;;;;;;;5.80;5.27;;;;;;;15.70;76.93;99620.14;640348;221;22720;-74
2021/05/09 06:26:29;;;;;;;4.97;4.57;;;;;;;16.10;74.84;99619.84;645525;221;24900;-74
2021/05/09 06:28:57;;;;;;;4.33;3.47;;;;;;;16.12;74.49;99618.34;639720;221;24842;-75
2021/05/09 06:31:25;;;;;;;4.70;4.20;;;;;;;16.54;73.45;99608.08;642124;222;24825;-75
2021/05/09 06:33:53;;;;;;;5.90;4.60;;;;;;;16.90;72.37;99605.14;639459;221;24846;-75
2021/05/09 06:36:21;;;;;;;4.83;4.33;;;;;;;17.12;70.69;99590.78;647069;221;24891;-75
2021/05/09 06:38:49;;;;;;;4.80;4.30;;;;;;;17.09;70.64;99597.77;643590;221;24825;-78
2021/05/09 06:41:18;;;;;;;5.97;4.40;;;;;;;17.14;70.31;99597.95;640196;222;24846;-75
2021/05/09 06:43:45;;;;;;;4.47;3.90;;;;;;;17.40;69.60;99593.19;648055;221;23822;-74
2021/05/09 06:46:12;;;;;;;11.30;4.00;;;;;;;17.26;70.26;99594.72;642888;220;23832;-74
2021/05/09 06:48:40;;;;;;;4.37;3.80;;;;;;;17.30;70.80;99598.55;633396;225;23959;-74
2021/05/09 06:51:08;;;;;;;5.03;4.53;;;;;;;17.53;69.55;99594.18;639547;222;24802;-74
2021/05/09 06:53:36;;;;;;;5.70;4.60;;;;;;;17.46;70.41;99588.95;647345;221;24802;-75
2021/05/09 06:56:04;;;;;;;5.50;4.87;;;;;;;17.61;70.10;99595.28;642584;221;27038;-75
2021/05/09 06:58:32;;;;;;;8.83;4.83;;;;;;;17.72;69.82;99588.08;639647;221;23833;-75
2021/05/09 07:01:00;;;;;;;6.63;5.40;;;;;;;18.00;69.87;99589.10;647753;222;23840;-75
2021/05/09 07:03:28;;;;;;;6.10;4.80;;;;;;;17.93;70.59;99591.77;642942;222;23825;-75
2021/05/09 07:05:57;;;;;;;5.03;4.53;;;;;;;18.12;70.88;99603.23;630628;225;23852;-75
2021/05/09 07:08:24;;;;;;;5.10;4.70;;;;;;;18.26;71.34;99604.78;629984;225;23864;-75
2021/05/09 07:10:51;;;;;;;4.80;4.40;;;;;;;18.55;69.59;99597.34;627296;224;24843;-76
2021/05/09 07:13:19;;;;;;;5.50;4.97;;;;;;;18.60;68.30;99585.67;639098;223;23815;-76
2021/05/09 07:15:48;;;;;;;6.30;5.03;;;;;;;18.77;71.13;99600.48;641958;223;23820;-75
2021/05/09 07:18:17;;;;;;;7.73;4.77;;;;;;;18.58;70.19;99596.91;642853;223;24866;-75
2021/05/09 07:20:44;;;;;;;5.93;5.33;;;;;;;18.35;69.43;99592.19;641072;223;23927;-75
2021/05/09 07:23:12;;;;;;;5.10;4.60;;;;;;;18.35;69.60;99599.58;641964;224;23837;-75
2021/05/09 07:25:39;;;;;;;5.47;4.33;;;;;;;18.44;70.99;99603.27;640576;223;23813;-75
2021/05/09 07:28:07;;;;;;;5.60;4.70;;;;;;;18.50;69.59;99601.12;641577;221;24795;-76
2021/05/09 07:30:35;;;;;;;5.73;4.77;;;;;;;18.89;68.98;99598.27;644782;221;24814;-76
2021/05/09 07:33:04;;;;;;;7.33;4.90;;;;;;;18.90;69.70;99593.29;626985;225;24853;-78
2021/05/09 07:35:32;;;;;;;5.00;4.50;;;;;;;18.87;68.72;99581.86;627949;225;24955;-76
2021/05/09 07:38:01;;;;;;;6.40;4.17;;;;;;;18.95;67.90;99588.68;640024;220;26951;-75
2021/05/09 07:40:29;;;;;;;6.10;5.00;;;;;;;18.95;67.98;99582.09;641992;222;24896;-75
2021/05/09 07:42:57;;;;;;;4.87;4.37;;;;;;;19.33;66.48;99568.78;644003;221;23910;-75
2021/05/09 07:45:25;;;;;;;5.20;4.50;;;;;;;19.17;68.45;99565.39;629390;225;23897;-75
2021/05/09 07:47:53;;;;;;;4.80;4.10;;;;;;;19.20;68.08;99574.98;633382;225;23881;-75
2021/05/09 07:50:21;;;;;;;4.73;4.27;;;;;;;19.21;66.44;99556.02;645135;221;24804;-76
2021/05/09 07:52:49;;;;;;;4.27;3.63;;;;;;;19.23;66.24;99560.05;645910;221;23828;-75
2021/05/09 07:55:17;;;;;;;3.53;3.23;;;;;;;19.42;67.37;99559.55;641582;221;23889;-75
2021/05/09 07:57:45;;;;;;;4.43;4.03;;;;;;;19.46;67.08;99556.78;637909;221;23838;-75
2021/05/09 08:00:15;;;;;;;4.93;3.13;;;;;;;19.57;65.31;99547.38;642024;222;23837;-75
2021/05/09 08:02:42;;;;;;;3.87;3.27;;;;;;;19.76;67.24;99542.88;634096;225;25104;-75
2021/05/09 08:05:11;;;;;;;5.80;3.30;;;;;;;20.12;66.75;99538.84;633807;221;32684;-76
2021/05/09 08:07:49;;;;;;;8.67;3.60;;;;;;;20.30;66.65;99545.94;644511;220;22965;-75
2021/05/09 08:10:17;;;;;;;5.50;3.50;;;;;;;20.39;68.68;99532.68;628577;225;23940;-75
2021/05/09 08:12:45;;;;;;;3.80;3.00;;;;;;;20.52;64.77;99517.18;633187;225;23877;-75
2021/05/09 08:15:13;;;;;;;4.10;3.53;;;;;;;21.03;64.59;99523.16;634165;225;23924;-75
2021/05/09 08:17:41;;;;;;;3.47;3.00;;;;;;;21.05;63.90;99518.44;638164;224;23848;-75
2021/05/09 08:20:10;;;;;;;5.07;3.20;;;;;;;20.99;61.36;99510.63;645168;221;23850;-75
2021/05/09 08:22:38;;;;;;;5.60;2.70;;;;;;;21.26;62.71;99506.51;630616;226;23893;-75
2021/05/09 08:25:07;;;;;;;3.70;2.80;;;;;;;21.80;60.55;99504.39;632089;225;32913;-77
2021/05/09 08:27:36;;;;;;;3.57;2.60;;;;;;;22.14;59.08;99497.91;642780;221;23028;-77
2021/05/09 08:30:04;;;;;;;3.67;2.90;;;;;;;22.54;57.60;99487.19;641623;221;32721;-77
2021/05/09 08:32:32;;;;;;;3.90;2.87;;;;;;;22.33;57.36;99474.64;636685;225;22749;-77
2021/05/09 08:35:01;;;;;;;3.27;2.77;;;;;;;22.04;57.33;99481.80;640620;220;26088;-77
2021/05/09 08:37:27;;;;;;;4.33;3.02;;;;;;;22.16;59.86;99493.17;632982;220;32726;-77
2021/05/09 08:39:55;;;;;;;4.43;2.97;;;;;;;22.53;59.79;99494.06;638938;221;22720;-77
2021/05/09 08:42:23;;;;;;;2.90;2.33;;;;;;;22.43;57.47;99486.22;642098;221;30354;-77
2021/05/09 08:44:53;;;;;;;3.00;2.50;;;;;;;22.34;58.26;99485.52;637363;225;24901;-77
2021/05/09 08:47:21;;;;;;;4.90;3.33;;;;;;;22.25;59.71;99483.80;644998;221;23900;-78
2021/05/09 08:49:47;;;;;;;3.80;2.90;;;;;;;22.47;58.75;99480.71;628115;225;32955;-77
2021/05/09 08:52:18;;;;;;;3.80;2.80;;;;;;;22.39;57.18;99475.02;641232;221;22724;-78
2021/05/09 08:54:46;;;;;;;3.85;3.30;;;;;;;22.47;58.94;99467.98;622009;225;32856;-77
2021/05/09 08:57:14;;;;;;;5.93;3.20;;;;;;;22.23;60.67;99480.04;632914;225;22735;-77
2021/05/09 08:59:42;;;;;;;5.93;2.60;;;;;;;22.49;61.93;99485.77;628141;225;23884;-77
2021/05/09 09:02:10;;;;;;;3.00;2.50;;;;;;;22.80;59.23;99475.94;630870;225;23868;-78
2021/05/09 09:04:45;;;;;;;4.30;3.15;;;;;;;22.62;58.33;99466.89;632032;225;32779;-78
2021/05/09 09:07:13;;;;;;;4.20;2.93;;;;;;;22.88;57.30;99458.82;637913;225;22746;-77
2021/05/09 09:09:42;;;;;;;5.80;2.97;;;;;;;23.13;58.84;99456.23;635761;226;25058;-77
2021/05/09 09:12:10;;;;;;;2.63;2.20;;;;;;;23.44;55.58;99443.61;641946;221;23856;-78
2021/05/09 09:14:51;;;;;;;3.57;2.50;;;;;;;23.91;54.63;99435.89;640653;221;23920;-78
2021/05/09 09:17:19;;;;;;;3.50;2.17;;;;;;;23.79;55.44;99428.63;641249;221;23867;-78
2021/05/09 09:19:58;;;;;;;2.77;2.07;;;;;;;23.87;54.24;99433.47;646811;221;24171;-79
2021/05/09 09:22:25;;;;;;;3.20;2.67;;;;;;;24.22;54.39;99414.39;629082;225;23963;-77
2021/05/09 09:25:04;;;;;;;4.83;2.33;;;;;;;24.80;54.33;99417.99;636255;225;23904;-78
2021/05/09 09:27:32;;;;;;;2.72;2.40;;;;;;;24.58;53.41;99411.47;627916;226;32844;-78
2021/05/09 09:30:00;;;;;;;4.37;2.27;;;;;;;24.54;51.36;99402.41;628043;225;32854;-78
2021/05/09 09:32:28;;;;;;;3.57;1.93;;;;;;;24.75;51.85;99396.66;642867;221;22718;-79
2021/05/09 09:34:56;;;;;;;3.73;2.23;;;;;;;24.48;52.54;99402.62;631715;225;23878;-78
2021/05/09 09:37:24;;;;;;;5.70;2.17;;;;;;;24.63;54.46;99396.59;634797;225;23899;-78
2021/05/09 09:39:53;;;;;;;2.33;2.13;;;;;;;24.72;53.47;99389.20;638920;224;24125;-78
2021/05/09 09:42:36;;;;;;;2.30;2.10;;;;;;;24.97;52.24;99395.72;638506;224;23900;-81
2021/05/09 09:45:13;;;;;;;5.03;2.13;;;;;;;25.20;54.99;99395.32;643712;220;23883;-77
2021/05/09 09:47:47;;;;;;;3.23;2.33;;;;;;;24.88;54.66;99401.52;646187;220;23843;-78
2021/05/09 09:50:34;;;;;;;2.97;1.97;;;;;;;25.33;56.23;99405.45;635067;225;23885;-78
2021/05/09 09:53:02;;;;;;;2.53;2.07;;;;;;;25.66;51.08;99390.10;631565;225;23863;-78
2021/05/09 09:55:30;;;;;;;3.62;2.00;;;;;;;26.18;51.27;99387.73;639692;221;43375;-78
2021/05/09 09:58:03;;;;;;;2.37;2.00;;;;;;;25.89;53.39;99386.94;637967;221;22710;-78
2021/05/09 10:00:31;;;;;;;4.87;2.27;;;;;;;25.70;51.85;99376.01;632229;225;23926;-78
2021/05/09 10:02:59;;;;;;;2.62;1.90;;;;;;;25.90;49.87;99369.91;635026;221;32699;-78
2021/05/09 10:05:26;;;;;;;4.10;2.17;;;;;;;25.63;51.06;99366.13;640313;221;25889;-78
2021/05/09 10:07:54;;;;;;;3.80;2.10;;;;;;;25.36;52.98;99376.99;646540;221;23809;-79
2021/05/09 10:10:24;;;;;;;3.37;2.10;;;;;;;25.34;52.08;99369.01;639998;221;23838;-78
2021/05/09 10:12:52;;;;;;;3.73;2.27;;;;;;;25.69;53.15;99368.28;642808;221;23840;-78
2021/05/09 10:15:20;;;;;;;2.73;2.10;;;;;;;25.72;52.03;99356.56;630823;225;24178;-78
2021/05/09 10:17:49;;;;;;;3.60;1.80;;;;;;;25.93;51.14;99354.71;620687;225;32833;-78
2021/05/09 10:20:16;;;;;;;3.37;2.47;;;;;;;25.89;52.79;99359.48;625925;225;24849;-78
2021/05/09 10:22:44;;;;;;;8.77;2.03;;;;;;;25.70;52.83;99352.56;633133;225;23876;-79
2021/05/09 10:25:13;;;;;;;2.80;1.40;;;;;;;25.84;54.84;99354.97;636952;225;27013;-78
2021/05/09 10:27:41;;;;;;;2.50;1.67;;;;;;;25.38;51.73;99346.91;637247;220;23845;-77
2021/05/09 10:30:10;;;;;;;2.07;1.70;;;;;;;25.54;53.41;99345.06;643661;221;23869;-77
2021/05/09 10:32:44;;;;;;;2.43;1.70;;;;;;;25.70;55.31;99355.23;635102;225;24903;-78
2021/05/09 10:35:12;;;;;;;2.83;1.70;;;;;;;25.75;55.58;99360.55;645322;221;23877;-78
2021/05/09 10:38:00;;;;;;;2.20;1.50;;;;;;;25.64;52.33;99350.94;641311;221;23873;-78
2021/05/09 10:40:30;;;;;;;5.07;1.47;;;;;;;26.05;51.85;99346.45;641053;223;24586;-78
2021/05/09 10:43:21;;;;;;;1.73;1.40;;;;;;;26.16;49.95;99332.55;639840;224;23838;-78
2021/05/09 10:45:55;;;;;;;2.30;1.40;;;;;;;26.46;52.62;99328.52;642117;221;27048;-78
2021/05/09 10:48:30;;;;;;;1.57;1.47;;;;;;;26.87;52.44;99323.03;641998;223;23843;-78
2021/05/09 10:51:25;;;;;;;2.20;1.30;;;;;;;27.10;50.44;99310.41;632598;225;23882;-79
2021/05/09 10:53:53;;;;;;;3.03;2.17;;;;;;;27.21;48.71;99308.48;640682;221;23869;-78
2021/05/09 10:56:31;;;;;;;3.63;1.50;;;;;;;27.39;51.86;99312.36;627594;225;23903;-79
2021/05/09 10:58:59;;;;;;;3.13;1.67;;;;;;;27.70;49.32;99307.61;640989;220;26020;-78
2021/05/09 11:01:28;;;;;;;2.87;1.70;;;;;;;28.14;49.10;99290.08;637981;220;32664;-78
2021/05/09 11:03:56;;;;;;;2.80;1.40;;;;;;;28.54;46.76;99282.72;630063;226;22748;-79
2021/05/09 11:06:38;;;;;;;2.23;1.47;;;;;;;28.69;46.40;99269.94;631576;226;23900;-79
2021/05/09 11:09:06;;;;;;;5.93;1.37;;;;;;;29.00;46.39;99272.25;637610;225;23856;-78
2021/05/09 11:11:44;;;;;;;2.43;1.67;;;;;;;28.34;46.74;99257.80;631209;226;23888;-78
2021/05/09 11:14:18;;;;;;;2.93;1.30;;;;;;;28.95;47.06;99258.92;645367;221;23901;-78
2021/05/09 11:16:56;;;;;;;1.63;1.50;;;;;;;28.71;46.65;99248.23;637379;225;24171;-78
2021/05/09 11:19:25;;;;;;;2.10;1.43;;;;;;;28.90;44.38;99246.95;627598;226;23930;-78
2021/05/09 11:21:52;;;;;;;1.30;1.20;;;;;;;29.38;44.88;99244.86;639825;220;23851;-80
2021/05/09 11:24:20;;;;;;;2.30;1.60;;;;;;;30.06;46.18;99240.23;633261;225;23870;-79
2021/05/09 11:26:48;;;;;;;2.47;1.53;;;;;;;30.11;43.13;99236.10;628682;225;23883;-79
2021/05/09 11:29:16;;;;;;;3.73;1.40;;;;;;;29.35;43.59;99223.23;632407;225;23893;-78
2021/05/09 11:31:44;;;;;;;1.63;1.40;;;;;;;29.40;45.91;99233.30;630839;225;23911;-81
2021/05/09 11:34:12;;;;;;;2.27;1.30;;;;;;;29.18;44.46;99227.24;628091;226;23942;-79
2021/05/09 11:36:39;;;;;;;2.83;1.30;;;;;;;30.07;43.18;99219.02;632510;225;23935;-80
2021/05/09 11:39:08;;;;;;;1.40;1.20;;;;;;;29.99;42.51;99210.31;627679;225;23887;-79
2021/05/09 11:41:48;;;;;;;2.03;1.20;;;;;;;30.18;42.50;99210.23;628870;225;23918;-80
2021/05/09 11:44:16;;;;;;;3.30;1.37;;;;;;;29.93;40.37;99218.20;632154;225;24145;-79